Jiutai, China
Current Conditions -  °F | °C
As of 11:00 AM on Tuesday 23 Dec 2014 (Local Time) from ZYCC Reporting Station
Haze Haze  
Wind Chill: 16°   Ceiling: Unl
Heat Index: 27°   Visibility: 3mi
Dew Point: 16°   Wind: 11mph
Humidity: 64%   Direction: 230°SW
Pressure: 29.97"   Gusts: NA
Location:  44.15°N, 125.84°E
Report Text: ZYCC 230300Z 23005MPS 5000 BR NSC M03/M09 Q1015 NOSIG
Loading
Personal Weather Stations






























Interactive Weather Map New forecast layout! Learn more

10-Day Weather Forecast

Advertisements
Track Severe Weather on mobile